Time;durP1;ratioP1;P1;durP2;ratioP2;P2;SDS_P1;SDS_P2;PMS_P1;PMS_P2;Temp;Humidity;BMP_temperature;BMP_pressure;BME280_temperature;BME280_humidity;BME280_pressure;Samples;Min_cycle;Max_cycle;Signal;HPM_P1;HPM_P2
2023/04/17 00:00:20;;;;;;;22.47;16.20;;;7.60;99.90;;;;;;5035283;28;20596;-80
2023/04/17 00:02:47;;;;;;;24.23;16.83;;;7.60;99.90;;;;;;5040169;28;20286;-80
2023/04/17 00:05:15;;;;;;;26.70;17.07;;;7.60;99.90;;;;;;5034880;28;20661;-81
2023/04/17 00:07:42;;;;;;;26.83;16.97;;;7.60;99.90;;;;;;5038786;28;20765;-80
2023/04/17 00:10:11;;;;;;;22.37;16.73;;;7.60;99.90;;;;;;5015808;28;20226;-80
2023/04/17 00:12:38;;;;;;;26.03;18.10;;;7.60;99.90;;;;;;5036841;28;20235;-80
2023/04/17 00:15:05;;;;;;;22.60;16.00;;;7.60;99.90;;;;;;5033253;28;20231;-79
2023/04/17 00:17:32;;;;;;;26.17;18.07;;;7.60;99.90;;;;;;5039743;28;20227;-80
2023/04/17 00:19:59;;;;;;;22.73;16.80;;;7.60;99.90;;;;;;5036980;28;20229;-80
2023/04/17 00:22:26;;;;;;;24.00;17.40;;;7.60;99.90;;;;;;5041241;28;20226;-80
2023/04/17 00:24:52;;;;;;;24.37;17.57;;;7.50;99.90;;;;;;5038103;28;20627;-79
2023/04/17 00:27:22;;;;;;;25.40;17.70;;;7.50;99.90;;;;;;5017944;28;20248;-79
2023/04/17 00:29:49;;;;;;;21.27;16.60;;;7.50;99.90;;;;;;5020437;28;20292;-80
2023/04/17 00:32:16;;;;;;;23.77;17.30;;;7.40;99.90;;;;;;5017374;28;20226;-79
2023/04/17 00:34:43;;;;;;;26.67;16.77;;;7.50;99.90;;;;;;5017155;28;20280;-80
2023/04/17 00:37:10;;;;;;;25.77;17.03;;;7.40;99.90;;;;;;5020433;28;20256;-80
2023/04/17 00:39:37;;;;;;;23.67;16.63;;;7.40;99.90;;;;;;5019999;28;20764;-79
2023/04/17 00:42:05;;;;;;;25.10;17.13;;;7.40;99.90;;;;;;5014100;28;20229;-79
2023/04/17 00:44:33;;;;;;;24.47;17.03;;;7.30;99.90;;;;;;5041003;28;20248;-79
2023/04/17 00:47:00;;;;;;;21.47;16.67;;;7.30;99.90;;;;;;5039257;28;20235;-80
2023/04/17 00:49:28;;;;;;;24.27;16.63;;;7.30;99.90;;;;;;5014900;28;20313;-80
2023/04/17 00:51:55;;;;;;;24.10;17.40;;;7.20;99.90;;;;;;5040008;28;20222;-80
2023/04/17 00:54:24;;;;;;;27.53;18.17;;;7.20;99.90;;;;;;5040197;28;20228;-80
2023/04/17 00:56:52;;;;;;;27.33;18.20;;;7.20;99.90;;;;;;5020980;28;20675;-80
2023/04/17 00:59:19;;;;;;;23.90;16.27;;;7.20;99.90;;;;;;5025267;28;20226;-81
2023/04/17 01:01:47;;;;;;;24.43;17.27;;;7.20;99.90;;;;;;5020153;28;20341;-80
2023/04/17 01:04:14;;;;;;;26.70;17.80;;;7.10;99.90;;;;;;5040024;28;20216;-81
2023/04/17 01:06:41;;;;;;;26.57;18.77;;;7.10;99.90;;;;;;5031984;28;20225;-81
2023/04/17 01:09:08;;;;;;;26.27;18.53;;;7.10;99.90;;;;;;5036653;28;20620;-80
2023/04/17 01:11:35;;;;;;;25.77;17.17;;;7.10;99.90;;;;;;5039005;28;20255;-79
2023/04/17 01:14:02;;;;;;;24.47;17.27;;;7.10;99.90;;;;;;5036563;28;20316;-81
2023/04/17 01:16:29;;;;;;;26.73;17.67;;;7.00;99.90;;;;;;5039156;28;20806;-80
2023/04/17 01:18:58;;;;;;;25.53;17.27;;;7.00;99.90;;;;;;5017579;28;20646;-80
2023/04/17 01:21:26;;;;;;;26.63;19.07;;;7.00;99.90;;;;;;5032721;28;20220;-80
2023/04/17 01:23:53;;;;;;;29.30;19.63;;;6.90;99.90;;;;;;5018315;28;20226;-80
2023/04/17 01:26:24;;;;;;;27.70;19.03;;;6.90;99.90;;;;;;5016907;28;20212;-79
2023/04/17 01:28:52;;;;;;;26.13;18.00;;;6.90;99.90;;;;;;5021595;28;20217;-81
2023/04/17 01:31:19;;;;;;;25.07;17.77;;;6.90;99.90;;;;;;5017204;28;20885;-80
2023/04/17 01:33:46;;;;;;;27.77;18.43;;;6.80;99.90;;;;;;5018717;28;20244;-79
2023/04/17 01:36:13;;;;;;;33.07;19.43;;;6.80;99.90;;;;;;5035410;28;20233;-80
2023/04/17 01:38:40;;;;;;;25.87;18.83;;;6.80;99.90;;;;;;5018877;28;20267;-80
2023/04/17 01:41:09;;;;;;;28.67;19.00;;;6.80;99.90;;;;;;5023652;28;20228;-80
2023/04/17 01:43:40;;;;;;;28.83;19.73;;;6.80;99.90;;;;;;5022790;28;20321;-80
2023/04/17 01:46:07;;;;;;;27.00;18.50;;;6.80;99.90;;;;;;5016573;28;20273;-80
2023/04/17 01:48:34;;;;;;;26.20;19.43;;;6.80;99.90;;;;;;5021142;28;20226;-79
2023/04/17 01:51:01;;;;;;;23.27;17.77;;;6.80;99.90;;;;;;5038618;28;20224;-79
2023/04/17 01:53:29;;;;;;;28.90;18.47;;;6.80;99.90;;;;;;5015289;28;20236;-81
2023/04/17 01:55:56;;;;;;;26.43;17.73;;;6.80;99.90;;;;;;5018038;28;20298;-82
2023/04/17 01:58:23;;;;;;;26.93;19.47;;;6.80;99.90;;;;;;5016387;28;20226;-80
2023/04/17 02:00:51;;;;;;;25.70;18.90;;;6.80;99.90;;;;;;5019072;28;20234;-82
2023/04/17 02:03:18;;;;;;;28.30;19.33;;;6.70;99.90;;;;;;5034560;28;20305;-81
2023/04/17 02:05:46;;;;;;;27.20;18.30;;;6.80;99.90;;;;;;5020594;28;20230;-80
2023/04/17 02:08:12;;;;;;;28.90;18.83;;;6.70;99.90;;;;;;5018679;28;20232;-82
2023/04/17 02:10:40;;;;;;;30.23;19.53;;;6.70;99.90;;;;;;5017273;28;20707;-80
2023/04/17 02:13:06;;;;;;;24.10;18.53;;;6.70;99.90;;;;;;5035521;28;20772;-82
2023/04/17 02:15:33;;;;;;;27.47;18.73;;;6.70;99.90;;;;;;5033675;28;20943;-82
2023/04/17 02:18:02;;;;;;;24.40;18.67;;;6.60;99.90;;;;;;5018871;28;20263;-82
2023/04/17 02:20:29;;;;;;;26.47;18.87;;;6.60;99.90;;;;;;5033494;28;20229;-80
2023/04/17 02:22:58;;;;;;;27.20;18.30;;;6.60;99.90;;;;;;5015455;28;20312;-81
2023/04/17 02:25:25;;;;;;;27.80;19.47;;;6.60;99.90;;;;;;5034262;28;20234;-83
2023/04/17 02:27:53;;;;;;;28.37;19.43;;;6.60;99.90;;;;;;5023432;28;20754;-80
2023/04/17 02:30:21;;;;;;;28.00;18.60;;;6.50;99.90;;;;;;5021255;28;20248;-80
2023/04/17 02:32:49;;;;;;;27.53;18.50;;;6.50;99.90;;;;;;5041702;28;20208;-81
2023/04/17 02:35:17;;;;;;;28.80;18.40;;;6.50;99.90;;;;;;5037819;28;20221;-80
2023/04/17 02:37:44;;;;;;;28.17;18.83;;;6.50;99.90;;;;;;5034266;28;20703;-84
2023/04/17 02:40:11;;;;;;;28.43;19.50;;;6.50;99.90;;;;;;5015897;28;20229;-79
2023/04/17 02:42:38;;;;;;;27.03;19.53;;;6.50;99.90;;;;;;5020839;28;20220;-81
2023/04/17 02:45:06;;;;;;;25.87;18.53;;;6.50;99.90;;;;;;5017066;28;20314;-80
2023/04/17 02:47:33;;;;;;;29.10;19.03;;;6.50;99.90;;;;;;5017901;28;20221;-80
2023/04/17 02:50:00;;;;;;;31.03;19.03;;;6.40;99.90;;;;;;5018526;28;20231;-79
2023/04/17 02:52:29;;;;;;;31.63;20.03;;;6.50;99.90;;;;;;5024607;28;20230;-80
2023/04/17 02:54:56;;;;;;;31.37;20.03;;;6.40;99.90;;;;;;5019132;28;20798;-81
2023/04/17 02:57:23;;;;;;;28.63;18.27;;;6.40;99.90;;;;;;5016216;28;20244;-80
2023/04/17 02:59:51;;;;;;;24.93;17.60;;;6.40;99.90;;;;;;5035910;28;20235;-81
2023/04/17 03:02:20;;;;;;;27.97;19.07;;;6.40;99.90;;;;;;5019429;28;20790;-80
2023/04/17 03:04:49;;;;;;;24.50;18.07;;;6.40;99.90;;;;;;5018875;28;20232;-81
2023/04/17 03:07:18;;;;;;;27.30;18.20;;;6.40;99.90;;;;;;5017026;28;20308;-80
2023/04/17 03:09:47;;;;;;;27.23;19.23;;;6.40;99.90;;;;;;5022210;28;20275;-81
2023/04/17 03:12:14;;;;;;;29.30;18.97;;;6.30;99.90;;;;;;5019601;28;20224;-80
2023/04/17 03:14:41;;;;;;;26.00;19.07;;;6.40;99.90;;;;;;5013468;28;20224;-79
2023/04/17 03:17:08;;;;;;;25.17;17.57;;;6.30;99.90;;;;;;5019426;28;20689;-80
2023/04/17 03:19:35;;;;;;;25.20;17.40;;;6.30;99.90;;;;;;5025300;28;20233;-79
2023/04/17 03:22:02;;;;;;;26.33;18.20;;;6.30;99.90;;;;;;5035653;28;20309;-80
2023/04/17 03:24:30;;;;;;;25.37;17.83;;;6.30;99.90;;;;;;5018882;28;20802;-81
2023/04/17 03:26:59;;;;;;;24.50;17.67;;;6.20;99.90;;;;;;5018426;28;20249;-80
2023/04/17 03:29:30;;;;;;;24.77;17.37;;;6.20;99.90;;;;;;5037872;28;20723;-80
2023/04/17 03:31:56;;;;;;;27.80;18.57;;;6.30;99.90;;;;;;5037350;28;20242;-79
2023/04/17 03:34:23;;;;;;;26.50;18.30;;;6.20;99.90;;;;;;5020090;28;20237;-80
2023/04/17 03:36:50;;;;;;;28.93;18.67;;;6.20;99.90;;;;;;5034291;28;20220;-81
2023/04/17 03:39:17;;;;;;;25.60;18.93;;;6.10;99.90;;;;;;5019869;28;20335;-83
2023/04/17 03:41:44;;;;;;;28.47;18.20;;;6.20;99.90;;;;;;5015688;28;20216;-80
2023/04/17 03:44:12;;;;;;;31.87;19.87;;;6.10;99.90;;;;;;5016425;28;20774;-81
2023/04/17 03:46:39;;;;;;;30.60;21.50;;;6.20;99.90;;;;;;5013725;28;20233;-81
2023/04/17 03:49:07;;;;;;;34.40;22.33;;;6.10;99.90;;;;;;5015712;28;20231;-81
2023/04/17 03:51:34;;;;;;;31.67;22.03;;;6.10;99.90;;;;;;5016999;28;20231;-80
2023/04/17 03:54:10;;;;;;;29.33;20.13;;;6.10;99.90;;;;;;5023445;28;20640;-80
2023/04/17 03:56:37;;;;;;;37.47;25.23;;;6.10;99.90;;;;;;5018215;28;20245;-80
2023/04/17 03:59:04;;;;;;;32.20;21.77;;;6.10;99.90;;;;;;5023884;28;20237;-80
2023/04/17 04:01:37;;;;;;;28.40;22.27;;;6.10;99.90;;;;;;5026814;28;20236;-80
2023/04/17 04:04:13;;;;;;;32.23;20.97;;;6.10;99.90;;;;;;5021630;28;20244;-79
2023/04/17 04:06:41;;;;;;;33.40;22.43;;;6.10;99.90;;;;;;5023507;28;20283;-81
2023/04/17 04:09:11;;;;;;;34.40;23.03;;;6.10;99.90;;;;;;5017948;28;20323;-80
2023/04/17 04:11:37;;;;;;;34.33;23.23;;;6.10;99.90;;;;;;5019367;28;20220;-80
2023/04/17 04:14:04;;;;;;;32.93;23.23;;;6.10;99.90;;;;;;5015642;28;20235;-80
2023/04/17 04:16:32;;;;;;;35.17;23.77;;;6.10;99.90;;;;;;5023292;28;20238;-80
2023/04/17 04:19:11;;;;;;;33.40;23.60;;;6.10;99.90;;;;;;5027981;28;20223;-80
2023/04/17 04:21:38;;;;;;;35.33;25.10;;;6.10;99.90;;;;;;5024329;28;20230;-80
2023/04/17 04:24:08;;;;;;;38.03;23.57;;;6.10;99.90;;;;;;5021750;28;20433;-80
2023/04/17 04:26:36;;;;;;;44.33;30.53;;;6.10;99.90;;;;;;5018703;28;20240;-80
2023/04/17 04:29:03;;;;;;;36.07;25.57;;;6.00;99.90;;;;;;5023482;28;20227;-79
2023/04/17 04:31:37;;;;;;;35.57;26.27;;;6.10;99.90;;;;;;5045056;28;20776;-79
2023/04/17 04:34:05;;;;;;;50.20;36.87;;;6.10;99.90;;;;;;5019502;28;20239;-79
2023/04/17 04:36:35;;;;;;;38.17;25.57;;;6.10;99.90;;;;;;5018173;28;20229;-78
2023/04/17 04:39:16;;;;;;;36.40;24.93;;;6.00;99.90;;;;;;5033410;28;20276;-80
2023/04/17 04:41:44;;;;;;;30.83;22.30;;;6.00;99.90;;;;;;5025330;28;20306;-80
2023/04/17 04:44:12;;;;;;;51.83;30.40;;;6.00;99.90;;;;;;5020788;28;20223;-82
2023/04/17 04:46:40;;;;;;;82.30;45.63;;;6.00;99.90;;;;;;5024333;28;20312;-80
2023/04/17 04:49:07;;;;;;;217.93;106.47;;;6.00;99.90;;;;;;5023577;28;20243;-80
2023/04/17 04:51:37;;;;;;;111.87;64.23;;;6.10;99.90;;;;;;5021676;28;20227;-81
2023/04/17 04:54:06;;;;;;;92.07;63.23;;;6.10;99.90;;;;;;5017912;28;20964;-80
2023/04/17 04:56:43;;;;;;;38.90;25.73;;;6.10;99.90;;;;;;5023820;28;20231;-80
2023/04/17 04:59:10;;;;;;;38.23;25.00;;;6.10;99.90;;;;;;5023865;28;20297;-81
2023/04/17 05:01:43;;;;;;;59.03;38.23;;;6.10;99.90;;;;;;5028306;28;20224;-81
2023/04/17 05:04:10;;;;;;;39.97;28.30;;;6.20;99.90;;;;;;5020335;28;20738;-81
2023/04/17 05:06:39;;;;;;;36.30;25.17;;;6.10;99.90;;;;;;5016898;28;20656;-80
2023/04/17 05:09:08;;;;;;;39.90;27.00;;;6.20;99.90;;;;;;5022736;28;20942;-81
2023/04/17 05:11:35;;;;;;;39.87;27.10;;;6.20;99.90;;;;;;5020432;28;20304;-81
2023/04/17 05:14:02;;;;;;;35.73;24.30;;;6.30;99.90;;;;;;5022432;28;20227;-81
2023/04/17 05:16:31;;;;;;;34.67;23.07;;;6.30;99.90;;;;;;5020069;28;20228;-82
2023/04/17 05:18:59;;;;;;;42.73;29.07;;;6.40;99.90;;;;;;5025287;28;20258;-81
2023/04/17 05:21:44;;;;;;;39.70;25.07;;;6.40;99.90;;;;;;5020157;28;20640;-82
2023/04/17 05:24:12;;;;;;;37.63;24.80;;;6.50;99.90;;;;;;5020853;28;20277;-80
2023/04/17 05:26:39;;;;;;;38.10;26.70;;;6.50;99.90;;;;;;5027058;28;20586;-80
2023/04/17 05:29:07;;;;;;;40.33;25.70;;;6.50;99.90;;;;;;5029262;28;20493;-81
2023/04/17 05:31:35;;;;;;;36.13;24.57;;;6.60;99.90;;;;;;5030740;28;20221;-82
2023/04/17 05:34:06;;;;;;;39.10;25.87;;;6.60;99.90;;;;;;5019677;28;20288;-80
2023/04/17 05:36:33;;;;;;;37.77;26.90;;;6.70;99.90;;;;;;5039985;28;20266;-81
2023/04/17 05:39:04;;;;;;;45.17;31.10;;;6.70;99.90;;;;;;5024667;28;20949;-79
2023/04/17 05:41:31;;;;;;;39.37;29.10;;;6.80;99.90;;;;;;5040854;28;20911;-80
2023/04/17 05:43:58;;;;;;;40.77;27.67;;;6.80;99.90;;;;;;5018809;28;20220;-83
2023/04/17 05:46:25;;;;;;;38.87;29.00;;;6.90;99.90;;;;;;5027021;28;20593;-80
2023/04/17 05:48:52;;;;;;;41.30;30.17;;;6.90;99.90;;;;;;5025172;28;20929;-80
2023/04/17 05:51:19;;;;;;;40.03;26.57;;;7.00;99.90;;;;;;5021307;28;20217;-79
2023/04/17 05:53:47;;;;;;;39.43;27.03;;;7.10;99.90;;;;;;5041389;28;20232;-81
2023/04/17 05:56:15;;;;;;;38.43;27.70;;;7.10;99.90;;;;;;5019488;28;21245;-80
2023/04/17 05:58:42;;;;;;;38.77;28.67;;;7.20;99.90;;;;;;5021233;28;20226;-79
2023/04/17 06:01:09;;;;;;;41.27;27.47;;;7.30;99.90;;;;;;5012085;28;21030;-79
2023/04/17 06:03:36;;;;;;;36.63;27.07;;;7.40;99.90;;;;;;5032197;28;20229;-78
2023/04/17 06:06:10;;;;;;;37.07;26.93;;;7.50;99.90;;;;;;5025671;28;20714;-79
2023/04/17 06:08:37;;;;;;;39.43;27.53;;;7.60;99.90;;;;;;5029077;28;20337;-81
2023/04/17 06:11:05;;;;;;;37.87;25.93;;;7.70;99.90;;;;;;5024574;28;20226;-80
2023/04/17 06:13:34;;;;;;;38.30;26.93;;;7.80;99.90;;;;;;5021474;28;20320;-80
2023/04/17 06:16:00;;;;;;;37.50;26.30;;;7.90;99.90;;;;;;5046808;28;20258;-80
2023/04/17 06:18:27;;;;;;;37.50;27.50;;;8.00;99.90;;;;;;5027217;28;20226;-80
2023/04/17 06:20:54;;;;;;;40.33;27.83;;;8.10;99.90;;;;;;5024071;28;20239;-80
2023/04/17 06:23:21;;;;;;;42.47;28.00;;;8.30;99.90;;;;;;5035420;28;20231;-79
2023/04/17 06:25:49;;;;;;;40.40;27.77;;;8.40;99.90;;;;;;5025212;28;20227;-79
2023/04/17 06:28:15;;;;;;;37.30;25.80;;;8.60;99.90;;;;;;5019035;28;20236;-82
2023/04/17 06:30:43;;;;;;;37.40;26.53;;;8.80;99.90;;;;;;5022341;28;20294;-80
2023/04/17 06:33:10;;;;;;;37.57;26.13;;;9.10;99.90;;;;;;5022617;28;20862;-80
2023/04/17 06:35:37;;;;;;;37.70;25.83;;;9.30;99.90;;;;;;5020320;28;20221;-80
2023/04/17 06:38:14;;;;;;;37.87;25.87;;;9.60;99.90;;;;;;5039104;28;20924;-80
2023/04/17 06:40:41;;;;;;;34.80;25.87;;;9.90;99.90;;;;;;5037165;28;20227;-80
2023/04/17 06:43:07;;;;;;;35.70;25.90;;;10.10;99.90;;;;;;5019047;28;21740;-76
2023/04/17 06:45:41;;;;;;;34.47;24.13;;;10.30;99.90;;;;;;5025461;28;20281;-78
2023/04/17 06:48:09;;;;;;;35.80;24.77;;;10.40;99.90;;;;;;5020425;28;20233;-79
2023/04/17 06:50:35;;;;;;;36.43;24.97;;;10.50;99.90;;;;;;5036312;28;20251;-80
2023/04/17 06:53:02;;;;;;;33.30;24.57;;;10.60;99.90;;;;;;5016484;28;20270;-81
2023/04/17 06:55:29;;;;;;;33.53;23.87;;;10.60;99.90;;;;;;5046963;28;20235;-80
2023/04/17 06:57:55;;;;;;;31.97;24.27;;;10.60;99.90;;;;;;5050140;28;20229;-80
2023/04/17 07:00:23;;;;;;;33.37;23.77;;;10.70;99.90;;;;;;5044185;28;20922;-80
2023/04/17 07:02:50;;;;;;;33.60;24.43;;;10.70;99.90;;;;;;5031627;28;20306;-80
2023/04/17 07:05:18;;;;;;;33.40;24.30;;;10.70;99.90;;;;;;5046873;28;20701;-80
2023/04/17 07:07:45;;;;;;;27.70;22.00;;;10.70;99.90;;;;;;5027363;28;20228;-79
2023/04/17 07:10:14;;;;;;;31.40;22.97;;;10.80;99.90;;;;;;5042808;28;20233;-79
2023/04/17 07:12:41;;;;;;;31.30;23.13;;;10.80;99.90;;;;;;5040008;28;20220;-79
2023/04/17 07:15:09;;;;;;;31.90;22.30;;;10.80;99.90;;;;;;5045124;28;20225;-80
2023/04/17 07:17:35;;;;;;;30.57;22.10;;;10.80;99.90;;;;;;5045587;28;20235;-79
2023/04/17 07:20:04;;;;;;;31.30;22.10;;;10.80;99.90;;;;;;5046590;28;20231;-79
2023/04/17 07:22:33;;;;;;;29.90;21.57;;;10.90;99.90;;;;;;5041689;28;20222;-79
2023/04/17 07:24:59;;;;;;;27.27;21.17;;;10.90;99.90;;;;;;5047561;28;20310;-80
2023/04/17 07:27:26;;;;;;;29.97;21.43;;;11.00;99.90;;;;;;5041150;28;20232;-80
2023/04/17 07:29:54;;;;;;;28.10;20.60;;;11.00;99.90;;;;;;5029948;28;20235;-80
2023/04/17 07:32:21;;;;;;;27.13;19.47;;;11.00;99.90;;;;;;5039519;28;20241;-79
2023/04/17 07:34:48;;;;;;;26.50;18.90;;;11.10;99.90;;;;;;5040344;28;20221;-80
2023/04/17 07:37:15;;;;;;;27.80;19.50;;;11.20;99.90;;;;;;5037855;28;20670;-80
2023/04/17 07:39:43;;;;;;;27.07;18.00;;;11.30;99.90;;;;;;5043722;28;20285;-80
2023/04/17 07:42:10;;;;;;;26.00;18.63;;;11.60;99.90;;;;;;5037737;28;20276;-80
2023/04/17 07:44:38;;;;;;;25.37;18.60;;;12.00;99.90;;;;;;5047114;28;20231;-79
2023/04/17 07:47:05;;;;;;;25.73;19.17;;;12.50;99.90;;;;;;5022212;28;20466;-80
2023/04/17 07:49:32;;;;;;;24.03;17.13;;;13.00;99.90;;;;;;5022982;28;20225;-80
2023/04/17 07:51:59;;;;;;;22.77;17.70;;;13.60;99.90;;;;;;5034526;28;20242;-80
2023/04/17 07:54:26;;;;;;;21.33;16.93;;;14.20;99.90;;;;;;5035895;28;20225;-80
2023/04/17 07:56:57;;;;;;;22.07;16.77;;;14.70;99.90;;;;;;5044502;28;20226;-80
2023/04/17 07:59:23;;;;;;;25.13;19.10;;;15.40;99.90;;;;;;5035796;28;20237;-77
2023/04/17 08:01:51;;;;;;;20.87;17.80;;;15.90;99.90;;;;;;5039124;28;20272;-77
2023/04/17 08:04:17;;;;;;;20.40;15.63;;;16.40;99.90;;;;;;5026025;28;20220;-77
2023/04/17 08:06:44;;;;;;;18.27;14.83;;;17.00;99.90;;;;;;5023852;28;20231;-77
2023/04/17 08:09:11;;;;;;;19.63;16.20;;;17.50;99.90;;;;;;5046418;28;20227;-78
2023/04/17 08:11:38;;;;;;;17.17;14.40;;;17.90;99.90;;;;;;5045547;28;20230;-77
2023/04/17 08:14:06;;;;;;;18.03;13.63;;;18.30;99.30;;;;;;5035617;28;20224;-77
2023/04/17 08:16:32;;;;;;;19.07;13.53;;;18.70;98.30;;;;;;5034503;28;20224;-77
2023/04/17 08:18:59;;;;;;;16.03;13.23;;;18.90;98.30;;;;;;5045099;28;20900;-78
2023/04/17 08:21:26;;;;;;;17.63;12.33;;;19.30;97.90;;;;;;5043983;28;20701;-78
2023/04/17 08:23:53;;;;;;;15.27;11.27;;;19.60;96.20;;;;;;5030120;28;20220;-78
2023/04/17 08:26:19;;;;;;;16.27;11.47;;;19.80;95.60;;;;;;5041447;28;20224;-77
2023/04/17 08:28:46;;;;;;;12.90;10.55;;;20.00;94.40;;;;;;5020730;28;20226;-77
2023/04/17 08:31:14;;;;;;;13.77;10.55;;;20.20;94.50;;;;;;5022916;28;20224;-78
2023/04/17 08:33:40;;;;;;;13.93;9.90;;;20.40;93.30;;;;;;5044672;28;20602;-77
2023/04/17 08:36:09;;;;;;;12.02;9.68;;;20.60;92.60;;;;;;5024638;28;20262;-78
2023/04/17 08:38:35;;;;;;;15.13;10.23;;;20.80;92.30;;;;;;5043496;28;20228;-78
2023/04/17 08:41:04;;;;;;;11.98;10.25;;;21.00;91.90;;;;;;5031169;28;20238;-77
2023/04/17 08:43:34;;;;;;;12.20;9.68;;;21.30;90.80;;;;;;5042984;28;20228;-77
2023/04/17 08:46:02;;;;;;;13.15;10.63;;;21.60;90.90;;;;;;5044161;28;20223;-78
2023/04/17 08:48:30;;;;;;;12.35;10.98;;;21.80;90.10;;;;;;5029149;28;20755;-78
2023/04/17 08:50:57;;;;;;;13.27;10.85;;;22.00;86.90;;;;;;5044114;28;20276;-78
2023/04/17 08:53:24;;;;;;;12.48;10.27;;;22.00;88.10;;;;;;5042840;28;20248;-78
2023/04/17 08:55:50;;;;;;;13.65;10.85;;;22.10;87.50;;;;;;5052389;28;20227;-78
2023/04/17 08:58:20;;;;;;;14.43;10.75;;;22.10;83.90;;;;;;5048880;28;20228;-78
2023/04/17 09:00:47;;;;;;;14.13;10.38;;;21.90;80.20;;;;;;5029431;28;20223;-78
2023/04/17 09:03:14;;;;;;;12.60;11.20;;;21.80;80.90;;;;;;5038502;28;20597;-78
2023/04/17 09:05:44;;;;;;;28.00;22.60;;;21.60;83.30;;;;;;5033917;28;20366;-78
2023/04/17 09:08:14;;;;;;;17.63;13.80;;;21.50;82.50;;;;;;5046423;28;20233;-78
2023/04/17 09:10:43;;;;;;;38.30;27.08;;;21.40;83.20;;;;;;5026181;28;20235;-78
2023/04/17 09:13:11;;;;;;;14.73;12.18;;;21.50;81.40;;;;;;5050697;28;20228;-78
2023/04/17 09:15:37;;;;;;;15.02;11.63;;;21.50;80.20;;;;;;5030093;28;20236;-78
2023/04/17 09:18:04;;;;;;;13.32;11.77;;;21.40;78.80;;;;;;5041630;28;20548;-78
2023/04/17 09:20:31;;;;;;;13.95;12.20;;;21.20;82.60;;;;;;5040103;28;20220;-78
2023/04/17 09:23:04;;;;;;;16.27;11.90;;;21.10;81.80;;;;;;5051843;28;20315;-78
2023/04/17 09:25:31;;;;;;;12.93;11.17;;;21.10;80.20;;;;;;5041357;28;20231;-78
2023/04/17 09:28:11;;;;;;;12.60;9.75;;;21.00;83.00;;;;;;5050249;28;20828;-78
2023/04/17 09:30:38;;;;;;;12.82;10.80;;;21.00;79.10;;;;;;5019950;28;20236;-78
2023/04/17 09:33:07;;;;;;;11.40;10.20;;;21.10;80.20;;;;;;5028791;28;20801;-78
2023/04/17 09:35:34;;;;;;;10.35;9.25;;;21.00;78.20;;;;;;5020126;28;20328;-78
2023/04/17 09:38:02;;;;;;;13.60;10.43;;;21.00;79.40;;;;;;5018168;28;20638;-78
2023/04/17 09:40:37;;;;;;;11.45;10.10;;;20.90;79.50;;;;;;5026262;28;20235;-78
2023/04/17 09:43:05;;;;;;;14.07;11.27;;;21.00;80.70;;;;;;5024922;28;20889;-78
2023/04/17 09:45:35;;;;;;;14.23;11.93;;;21.20;82.20;;;;;;5030672;28;20303;-78
2023/04/17 09:48:04;;;;;;;15.98;12.38;;;21.30;83.30;;;;;;5024569;28;20973;-78
2023/04/17 09:50:33;;;;;;;14.15;11.75;;;21.70;83.70;;;;;;5030805;28;20762;-78
2023/04/17 09:53:02;;;;;;;13.85;11.57;;;22.00;82.60;;;;;;5021218;28;20232;-78
2023/04/17 09:55:31;;;;;;;15.40;12.30;;;22.40;81.70;;;;;;5020695;28;20245;-78
2023/04/17 09:58:01;;;;;;;16.20;12.55;;;22.60;81.50;;;;;;5020410;28;20867;-78
2023/04/17 10:00:28;;;;;;;18.73;12.40;;;22.80;78.70;;;;;;5020824;28;20575;-78
2023/04/17 10:02:56;;;;;;;17.35;12.23;;;22.80;79.50;;;;;;5024923;28;20236;-78
2023/04/17 10:05:24;;;;;;;13.27;11.25;;;22.80;79.20;;;;;;5014259;28;20601;-78
2023/04/17 10:07:51;;;;;;;12.30;9.50;;;22.80;77.20;;;;;;5031479;28;20294;-78
2023/04/17 10:10:32;;;;;;;10.18;8.82;;;22.80;76.10;;;;;;5021211;28;20540;-78
2023/04/17 10:13:01;;;;;;;12.48;10.55;;;22.60;75.20;;;;;;5026406;28;20343;-78
2023/04/17 10:15:28;;;;;;;13.52;10.55;;;22.40;72.80;;;;;;5025255;28;20227;-78
2023/04/17 10:18:15;;;;;;;12.75;10.52;;;22.20;73.80;;;;;;5023785;28;20232;-78
2023/04/17 10:20:43;;;;;;;12.35;10.68;;;21.90;74.50;;;;;;5037254;28;20212;-78
2023/04/17 10:23:31;;;;;;;11.43;9.75;;;21.60;72.60;;;;;;5023816;28;20217;-78
2023/04/17 10:26:37;;;;;;;12.57;10.10;;;21.40;73.60;;;;;;5027650;28;20294;-78
2023/04/17 10:29:05;;;;;;;14.52;10.27;;;21.10;74.10;;;;;;5023044;28;20307;-78
2023/04/17 10:32:23;;;;;;;17.88;10.35;;;20.90;73.90;;;;;;5024107;28;20224;-78
2023/04/17 10:34:50;;;;;;;15.10;10.68;;;20.60;72.60;;;;;;5015470;28;20783;-78
2023/04/17 10:37:17;;;;;;;13.75;11.10;;;20.30;74.80;;;;;;5021564;28;20231;-78
2023/04/17 10:39:53;;;;;;;13.03;10.00;;;20.10;74.60;;;;;;5018486;28;20229;-78
2023/04/17 10:42:20;;;;;;;15.73;11.00;;;19.80;75.30;;;;;;5020230;28;20737;-78
2023/04/17 10:44:49;;;;;;;15.33;10.80;;;19.60;76.40;;;;;;5038504;28;20216;-78
2023/04/17 10:47:20;;;;;;;11.65;9.32;;;19.50;76.30;;;;;;5021633;28;20820;-78
2023/04/17 10:49:49;;;;;;;11.60;9.55;;;19.60;77.00;;;;;;5018054;28;20220;-79
2023/04/17 10:52:36;;;;;;;11.98;9.32;;;19.70;76.10;;;;;;5016551;28;20694;-78
2023/04/17 10:55:05;;;;;;;9.75;8.30;;;19.80;74.40;;;;;;5018801;28;20251;-78
2023/04/17 10:57:55;;;;;;;10.32;7.05;;;19.80;73.80;;;;;;5015676;28;20221;-78
2023/04/17 11:00:30;;;;;;;8.17;7.20;;;19.90;70.20;;;;;;5013103;28;20225;-78
2023/04/17 11:02:57;;;;;;;9.60;6.50;;;20.00;70.30;;;;;;5019973;28;20320;-78
2023/04/17 11:05:23;;;;;;;8.45;7.57;;;20.00;68.50;;;;;;5026017;28;20228;-78
2023/04/17 11:07:50;;;;;;;8.02;6.57;;;20.00;66.30;;;;;;5019143;28;20236;-78
2023/04/17 11:10:19;;;;;;;9.55;6.20;;;19.90;65.40;;;;;;5020210;28;20239;-78
2023/04/17 11:12:47;;;;;;;9.05;6.65;;;19.80;62.50;;;;;;5022861;28;20228;-78
2023/04/17 11:15:13;;;;;;;10.77;6.53;;;19.80;65.10;;;;;;5022880;28;20224;-78
2023/04/17 11:17:46;;;;;;;8.88;5.82;;;19.80;66.20;;;;;;5027782;28;20232;-78
2023/04/17 11:20:16;;;;;;;11.05;6.78;;;20.00;64.70;;;;;;5021476;28;20312;-78
2023/04/17 11:22:43;;;;;;;8.48;6.43;;;20.00;63.50;;;;;;5029761;28;20727;-78
2023/04/17 11:25:19;;;;;;;6.20;5.60;;;20.00;60.70;;;;;;5017042;28;20244;-78
2023/04/17 11:27:46;;;;;;;9.20;6.03;;;19.80;59.70;;;;;;5019172;28;20778;-78
2023/04/17 11:30:13;;;;;;;8.57;5.97;;;19.70;61.70;;;;;;5019725;28;20220;-78
2023/04/17 11:32:44;;;;;;;10.80;5.88;;;19.60;61.60;;;;;;5022049;28;20246;-78
2023/04/17 11:35:11;;;;;;;7.73;5.70;;;19.50;61.60;;;;;;5016111;28;20225;-78
2023/04/17 11:38:05;;;;;;;8.50;6.10;;;19.50;63.00;;;;;;5021893;28;20232;-78
2023/04/17 11:40:32;;;;;;;8.55;6.20;;;19.50;59.90;;;;;;5023317;28;20227;-78
2023/04/17 11:43:05;;;;;;;10.57;6.32;;;19.50;61.00;;;;;;5020073;28;20229;-78
2023/04/17 11:45:33;;;;;;;11.35;7.45;;;19.50;61.00;;;;;;5040179;28;20227;-78
2023/04/17 11:48:01;;;;;;;9.33;7.13;;;19.40;60.50;;;;;;5040108;28;20326;-78
2023/04/17 11:50:29;;;;;;;10.60;6.70;;;19.40;58.80;;;;;;5042024;28;20227;-78
2023/04/17 11:52:57;;;;;;;9.27;7.07;;;19.30;60.00;;;;;;5033797;28;20231;-78
2023/04/17 11:55:29;;;;;;;9.00;6.60;;;19.10;60.50;;;;;;5037079;28;20243;-78
2023/04/17 11:57:56;;;;;;;10.00;6.87;;;19.00;61.60;;;;;;5040469;28;20338;-78
2023/04/17 12:00:27;;;;;;;9.52;7.40;;;19.00;61.90;;;;;;5042982;28;20224;-79
2023/04/17 12:02:54;;;;;;;12.00;6.80;;;19.00;61.60;;;;;;5035864;28;20674;-78
2023/04/17 12:05:23;;;;;;;10.07;7.07;;;19.00;61.80;;;;;;5025587;28;20220;-78
2023/04/17 12:08:00;;;;;;;12.10;6.93;;;19.00;62.30;;;;;;5039115;28;20255;-78
2023/04/17 12:10:36;;;;;;;9.70;6.83;;;18.90;60.30;;;;;;5021544;28;20800;-78
2023/04/17 12:13:03;;;;;;;11.13;6.37;;;18.80;61.20;;;;;;5037987;28;20230;-78
2023/04/17 12:15:29;;;;;;;10.20;6.90;;;18.60;61.10;;;;;;5028838;28;20236;-78
2023/04/17 12:17:56;;;;;;;9.83;6.83;;;18.50;61.00;;;;;;5017610;28;20242;-78
2023/04/17 12:20:24;;;;;;;8.23;6.50;;;18.40;61.10;;;;;;5021295;28;20221;-78
2023/04/17 12:22:51;;;;;;;11.10;6.33;;;18.20;62.10;;;;;;5015178;28;20304;-78
2023/04/17 12:25:17;;;;;;;8.97;6.57;;;18.10;60.00;;;;;;5021010;28;20694;-80
2023/04/17 12:27:44;;;;;;;8.87;6.00;;;17.90;59.40;;;;;;5022661;28;20223;-78
2023/04/17 12:30:12;;;;;;;9.63;6.57;;;17.80;60.00;;;;;;5016156;28;20228;-78
2023/04/17 12:32:39;;;;;;;9.33;6.83;;;17.60;59.90;;;;;;5007221;28;20425;-78
2023/04/17 12:35:06;;;;;;;9.80;6.80;;;17.50;59.30;;;;;;5027417;28;20217;-78
2023/04/17 12:37:34;;;;;;;9.40;6.53;;;17.50;59.30;;;;;;5023512;28;20225;-78
2023/04/17 12:40:01;;;;;;;9.07;6.97;;;17.40;58.80;;;;;;5026378;28;20228;-78
2023/04/17 12:42:27;;;;;;;9.00;6.60;;;17.30;59.90;;;;;;5026934;28;20236;-78